Time;durP1;ratioP1;P1;durP2;ratioP2;P2;SDS_P1;SDS_P2;PMS_P1;PMS_P2;Temp;Humidity;BMP_temperature;BMP_pressure;BME280_temperature;BME280_humidity;BME280_pressure;Samples;Min_cycle;Max_cycle;Signal;HPM_P1;HPM_P2
2022/10/07 00:00:17;;;;;;;;;;;;;;;19.08;56.01;96477.81;5074929;28;20017;-65
2022/10/07 00:02:42;;;;;;;;;;;;;;;19.10;56.22;96475.59;5091460;28;20401;-65
2022/10/07 00:05:08;;;;;;;;;;;;;;;19.06;56.43;96470.03;5090308;28;20015;-65
2022/10/07 00:07:33;;;;;;;;;;;;;;;19.06;56.31;96470.03;5091564;28;20055;-65
2022/10/07 00:09:59;;;;;;;;;;;;;;;19.13;56.39;96470.31;5071458;28;20025;-65
2022/10/07 00:12:24;;;;;;;;;;;;;;;19.25;56.13;96472.31;5071053;28;20474;-65
2022/10/07 00:14:50;;;;;;;;;;;;;;;19.35;55.92;96468.47;5069408;28;20017;-65
2022/10/07 00:17:15;;;;;;;;;;;;;;;19.30;55.93;96464.03;5091229;28;20115;-66
2022/10/07 00:19:40;;;;;;;;;;;;;;;19.28;55.78;96462.78;5089070;28;20362;-66
2022/10/07 00:22:05;;;;;;;;;;;;;;;19.14;55.77;96460.31;5069719;28;20013;-65
2022/10/07 00:24:31;;;;;;;;;;;;;;;19.10;55.78;96462.09;5070809;28;20027;-66
2022/10/07 00:26:56;;;;;;;;;;;;;;;19.08;55.99;96465.09;5070850;28;20012;-66
2022/10/07 00:29:21;;;;;;;;;;;;;;;19.19;55.68;96463.63;5070624;28;20100;-66
2022/10/07 00:31:46;;;;;;;;;;;;;;;19.26;55.62;96454.22;5079446;28;20028;-66
2022/10/07 00:34:12;;;;;;;;;;;;;;;18.87;55.96;96448.88;5070840;28;20419;-66
2022/10/07 00:36:37;;;;;;;;;;;;;;;19.00;56.05;96449.00;5069232;28;20020;-66
2022/10/07 00:39:04;;;;;;;;;;;;;;;19.13;55.78;96443.34;5070352;28;20013;-66
2022/10/07 00:41:31;;;;;;;;;;;;;;;19.17;55.37;96438.09;5069185;28;20496;-66
2022/10/07 00:43:57;;;;;;;;;;;;;;;19.22;55.57;96438.69;5069832;28;20102;-66
2022/10/07 00:46:34;;;;;;;;;;;;;;;19.16;55.64;96439.22;5081612;28;20491;-67
2022/10/07 00:49:01;;;;;;;;;;;;;;;19.13;55.51;96431.75;5090533;28;20008;-67
2022/10/07 00:51:27;;;;;;;;;;;;;;;19.11;55.75;96429.41;5090724;28;20036;-67
2022/10/07 00:53:53;;;;;;;;;;;;;;;19.17;55.60;96425.38;5090644;28;20461;-66
2022/10/07 00:56:20;;;;;;;;;;;;;;;19.16;55.37;96421.13;5077244;28;20480;-67
2022/10/07 00:58:47;;;;;;;;;;;;;;;19.20;55.33;96418.56;5069763;28;20036;-67
2022/10/07 01:01:12;;;;;;;;;;;;;;;19.23;55.29;96413.28;5069417;28;20114;-66
2022/10/07 01:03:38;;;;;;;;;;;;;;;19.26;55.41;96413.75;5070467;28;20084;-67
2022/10/07 01:06:03;;;;;;;;;;;;;;;19.16;55.37;96414.94;5070597;28;20035;-66
2022/10/07 01:08:29;;;;;;;;;;;;;;;19.17;55.53;96409.22;5069017;28;20128;-67
2022/10/07 01:11:12;;;;;;;;;;;;;;;19.12;55.53;96406.69;5068880;28;20020;-66
2022/10/07 01:13:46;;;;;;;;;;;;;;;19.02;55.73;96407.09;5070288;28;20028;-66
2022/10/07 01:16:26;;;;;;;;;;;;;;;18.90;55.67;96405.09;5069090;28;20063;-67
2022/10/07 01:18:56;;;;;;;;;;;;;;;19.02;55.70;96396.31;5069848;28;20009;-66
2022/10/07 01:21:40;;;;;;;;;;;;;;;19.09;55.74;96399.28;5070122;28;20115;-67
2022/10/07 01:24:08;;;;;;;;;;;;;;;19.03;55.54;96395.19;5070239;28;20009;-67
2022/10/07 01:26:52;;;;;;;;;;;;;;;19.06;55.60;96391.84;5069157;28;20021;-67
2022/10/07 01:29:38;;;;;;;;;;;;;;;18.96;55.81;96389.53;5068431;28;20097;-66
2022/10/07 01:32:03;;;;;;;;;;;;;;;19.10;55.63;96381.97;5068534;28;20063;-66
2022/10/07 01:34:31;;;;;;;;;;;;;;;19.12;55.54;96390.53;5069971;28;20378;-66
2022/10/07 01:36:58;;;;;;;;;;;;;;;19.14;55.38;96382.09;5069325;28;20459;-67
2022/10/07 01:39:26;;;;;;;;;;;;;;;19.04;55.19;96386.00;5069504;28;20052;-67
2022/10/07 01:41:52;;;;;;;;;;;;;;;19.08;55.30;96378.00;5070008;28;20519;-67
2022/10/07 01:44:17;;;;;;;;;;;;;;;19.03;55.38;96376.31;5068661;28;20013;-66
2022/10/07 01:46:43;;;;;;;;;;;;;;;18.93;55.71;96374.78;5078834;28;20028;-66
2022/10/07 01:49:08;;;;;;;;;;;;;;;18.91;55.94;96373.53;5087150;28;20013;-66
2022/10/07 01:51:36;;;;;;;;;;;;;;;18.99;55.56;96367.31;5069398;28;20012;-66
2022/10/07 01:54:04;;;;;;;;;;;;;;;18.96;55.71;96370.66;5069970;28;20009;-66
2022/10/07 01:56:40;;;;;;;;;;;;;;;19.06;55.45;96369.47;5069791;28;20014;-67
2022/10/07 01:59:05;;;;;;;;;;;;;;;18.97;55.76;96366.84;5069337;28;20021;-66
2022/10/07 02:01:40;;;;;;;;;;;;;;;19.01;55.72;96369.66;5068085;28;20021;-66
2022/10/07 02:04:11;;;;;;;;;;;;;;;19.03;55.51;96367.44;5069805;28;20007;-67
2022/10/07 02:06:45;;;;;;;;;;;;;;;19.02;55.41;96363.94;5070417;28;20138;-67
2022/10/07 02:09:18;;;;;;;;;;;;;;;18.98;55.56;96359.53;5073158;28;20013;-67
2022/10/07 02:11:46;;;;;;;;;;;;;;;18.94;55.84;96364.81;5073317;28;20071;-67
2022/10/07 02:14:15;;;;;;;;;;;;;;;18.77;56.08;96365.69;5072475;28;20079;-67
2022/10/07 02:16:41;;;;;;;;;;;;;;;18.82;56.50;96356.63;5080203;28;20017;-66
2022/10/07 02:19:09;;;;;;;;;;;;;;;18.80;56.45;96354.25;5093324;28;20009;-66
2022/10/07 02:21:36;;;;;;;;;;;;;;;18.76;56.48;96355.25;5087080;28;20024;-66
2022/10/07 02:24:02;;;;;;;;;;;;;;;18.77;56.61;96356.81;5073273;28;20017;-67
2022/10/07 02:26:29;;;;;;;;;;;;;;;18.77;56.84;96354.13;5073234;28;20501;-66
2022/10/07 02:28:55;;;;;;;;;;;;;;;18.78;56.65;96356.47;5072767;28;20017;-67
2022/10/07 02:31:23;;;;;;;;;;;;;;;18.80;56.73;96354.25;5070988;28;20139;-65
2022/10/07 02:33:52;;;;;;;;;;;;;;;18.80;56.90;96359.66;5071545;28;20060;-66
2022/10/07 02:36:21;;;;;;;;;;;;;;;18.79;56.82;96347.28;5073105;28;20009;-65
2022/10/07 02:38:46;;;;;;;;;;;;;;;18.77;56.63;96343.34;5071220;28;20045;-65
2022/10/07 02:41:31;;;;;;;;;;;;;;;18.72;56.62;96338.91;5071948;28;20064;-65
2022/10/07 02:44:00;;;;;;;;;;;;;;;18.63;56.63;96341.66;5072984;28;20066;-65
2022/10/07 02:46:29;;;;;;;;;;;;;;;18.58;56.63;96341.84;5072187;28;20021;-66
2022/10/07 02:48:57;;;;;;;;;;;;;;;18.54;56.76;96334.72;5072385;28;20010;-65
2022/10/07 02:51:24;;;;;;;;;;;;;;;18.50;56.88;96344.56;5071737;28;20018;-65
2022/10/07 02:53:51;;;;;;;;;;;;;;;18.43;56.90;96337.00;5072637;28;20009;-66
2022/10/07 02:56:19;;;;;;;;;;;;;;;18.39;57.27;96336.06;5072727;28;20013;-65
2022/10/07 02:58:45;;;;;;;;;;;;;;;18.34;57.25;96337.03;5070878;28;20021;-65
2022/10/07 03:01:15;;;;;;;;;;;;;;;18.28;57.38;96338.34;5070801;28;20142;-65
2022/10/07 03:03:41;;;;;;;;;;;;;;;18.25;57.14;96330.13;5084860;28;20025;-65
2022/10/07 03:06:07;;;;;;;;;;;;;;;18.17;57.46;96327.16;5072791;28;20009;-65
2022/10/07 03:08:32;;;;;;;;;;;;;;;18.09;57.82;96324.47;5072327;28;20017;-65
2022/10/07 03:10:58;;;;;;;;;;;;;;;18.02;57.90;96330.38;5071274;28;20363;-66
2022/10/07 03:13:23;;;;;;;;;;;;;;;17.97;58.33;96325.16;5071754;28;20025;-65
2022/10/07 03:15:49;;;;;;;;;;;;;;;17.90;58.40;96316.78;5071595;28;20024;-65
2022/10/07 03:18:27;;;;;;;;;;;;;;;17.79;58.53;96326.31;5085846;28;20024;-65
2022/10/07 03:20:56;;;;;;;;;;;;;;;17.63;58.85;96324.09;5091066;28;20012;-65
2022/10/07 03:23:22;;;;;;;;;;;;;;;17.48;59.04;96332.69;5091072;28;20025;-66
2022/10/07 03:25:51;;;;;;;;;;;;;;;17.26;59.37;96327.50;5091092;28;20059;-64
2022/10/07 03:28:17;;;;;;;;;;;;;;;17.08;60.28;96319.41;5079177;28;20070;-65
2022/10/07 03:30:43;;;;;;;;;;;;;;;16.92;60.47;96315.63;5072020;28;20065;-65
2022/10/07 03:33:08;;;;;;;;;;;;;;;16.80;60.66;96323.53;5069934;28;20080;-65
2022/10/07 03:35:33;;;;;;;;;;;;;;;16.60;61.13;96319.50;5070970;28;20076;-65
2022/10/07 03:37:58;;;;;;;;;;;;;;;16.47;61.31;96326.56;5071961;28;20032;-65
2022/10/07 03:40:23;;;;;;;;;;;;;;;16.35;61.91;96323.72;5069457;28;20508;-65
2022/10/07 03:42:49;;;;;;;;;;;;;;;16.28;62.01;96320.69;5070344;28;20070;-66
2022/10/07 03:45:14;;;;;;;;;;;;;;;16.20;62.25;96324.13;5071902;28;20013;-66
2022/10/07 03:47:40;;;;;;;;;;;;;;;16.14;62.62;96322.69;5078657;28;20100;-65
2022/10/07 03:50:05;;;;;;;;;;;;;;;16.04;62.55;96323.75;5090455;28;20024;-66
2022/10/07 03:52:30;;;;;;;;;;;;;;;16.00;62.29;96325.47;5075288;28;20020;-65
2022/10/07 03:54:55;;;;;;;;;;;;;;;15.89;62.51;96322.25;5071797;28;20036;-64
2022/10/07 04:00:05;;;;;;;;;;;;;;;15.69;63.04;96318.22;5071199;28;20020;-65
2022/10/07 04:02:30;;;;;;;;;;;;;;;15.65;63.24;96316.44;5069080;28;20017;-66
2022/10/07 04:04:55;;;;;;;;;;;;;;;15.61;62.93;96321.63;5069317;28;20555;-65
2022/10/07 04:07:21;;;;;;;;;;;;;;;15.57;63.11;96315.28;5071364;28;20047;-65
2022/10/07 04:09:46;;;;;;;;;;;;;;;15.50;63.21;96310.34;5070804;28;20099;-66
2022/10/07 04:12:12;;;;;;;;;;;;;;;15.46;63.15;96314.75;5069885;28;20054;-66
2022/10/07 04:14:37;;;;;;;;;;;;;;;15.42;63.60;96307.63;5069560;28;20013;-68
2022/10/07 04:17:03;;;;;;;;;;;;;;;15.36;63.54;96309.63;5069781;28;20017;-67
2022/10/07 04:19:28;;;;;;;;;;;;;;;15.31;64.00;96307.88;5069286;28;20017;-67
2022/10/07 04:21:55;;;;;;;;;;;;;;;15.29;63.58;96309.25;5071116;28;20073;-66
2022/10/07 04:24:20;;;;;;;;;;;;;;;15.24;63.96;96304.81;5069768;28;20086;-67
2022/10/07 04:26:45;;;;;;;;;;;;;;;14.71;63.98;96232.41;5069007;28;20402;-68
2022/10/07 04:29:11;;;;;;;;;;;;;;;15.15;63.67;96300.47;5084432;28;20067;-65
2022/10/07 04:31:36;;;;;;;;;;;;;;;15.09;63.83;96297.13;5069722;28;20066;-65
2022/10/07 04:34:01;;;;;;;;;;;;;;;15.07;64.08;96291.28;5079890;28;20040;-65
2022/10/07 04:36:27;;;;;;;;;;;;;;;15.04;64.04;96287.31;5069478;28;20505;-66
2022/10/07 04:38:52;;;;;;;;;;;;;;;15.01;63.96;96293.31;5069024;28;20036;-66
2022/10/07 04:41:17;;;;;;;;;;;;;;;14.98;64.24;96285.06;5069909;28;20017;-66
2022/10/07 04:43:42;;;;;;;;;;;;;;;14.92;63.90;96281.72;5068663;28;20377;-65
2022/10/07 04:46:11;;;;;;;;;;;;;;;14.89;63.84;96279.63;5070716;28;20016;-65
2022/10/07 04:48:36;;;;;;;;;;;;;;;14.86;63.91;96280.25;5082210;28;20021;-65
2022/10/07 04:51:02;;;;;;;;;;;;;;;14.83;64.22;96281.66;5090850;28;20376;-66
2022/10/07 04:53:28;;;;;;;;;;;;;;;14.75;64.60;96279.69;5071013;28;20448;-66
2022/10/07 04:55:53;;;;;;;;;;;;;;;14.73;64.39;96278.41;5070771;28;20009;-67
2022/10/07 04:58:18;;;;;;;;;;;;;;;14.73;65.32;96281.09;5068055;28;20021;-66
2022/10/07 05:00:45;;;;;;;;;;;;;;;14.89;65.76;96276.97;5070487;28;20013;-66
2022/10/07 05:03:14;;;;;;;;;;;;;;;15.07;65.54;96272.53;5068774;28;20041;-66
2022/10/07 05:05:40;;;;;;;;;;;;;;;15.21;65.05;96275.16;5070202;28;20162;-68
2022/10/07 05:08:06;;;;;;;;;;;;;;;15.19;65.29;96275.44;5069282;28;20013;-65
2022/10/07 05:10:33;;;;;;;;;;;;;;;15.21;65.38;96275.94;5069863;28;20013;-64
2022/10/07 05:12:59;;;;;;;;;;;;;;;15.27;64.68;96273.94;5068883;28;20025;-64
2022/10/07 05:15:24;;;;;;;;;;;;;;;15.34;64.42;96279.66;5066827;28;20546;-64
2022/10/07 05:17:49;;;;;;;;;;;;;;;15.39;64.28;96276.84;5068499;28;20022;-67
2022/10/07 05:20:14;;;;;;;;;;;;;;;15.43;63.67;96271.66;5068200;28;20470;-66
2022/10/07 05:22:40;;;;;;;;;;;;;;;15.40;63.52;96278.41;5070578;28;20465;-68
2022/10/07 05:25:05;;;;;;;;;;;;;;;15.36;63.35;96277.47;5070461;28;20062;-66
2022/10/07 05:27:31;;;;;;;;;;;;;;;15.35;63.18;96275.88;5068407;28;20013;-71
2022/10/07 05:29:56;;;;;;;;;;;;;;;15.32;63.25;96279.97;5068196;28;20024;-71
2022/10/07 05:32:21;;;;;;;;;;;;;;;15.37;63.66;96272.91;5072601;28;20060;-70
2022/10/07 05:34:47;;;;;;;;;;;;;;;15.42;63.88;96276.25;5075945;28;20017;-73
2022/10/07 05:37:14;;;;;;;;;;;;;;;15.49;63.52;96273.13;5076638;28;20012;-67
2022/10/07 05:39:39;;;;;;;;;;;;;;;15.57;63.43;96272.38;5079223;28;20017;-67
2022/10/07 05:42:04;;;;;;;;;;;;;;;15.65;63.10;96278.91;5073528;28;20100;-67
2022/10/07 05:44:32;;;;;;;;;;;;;;;15.71;62.38;96273.09;5072362;28;20021;-68
2022/10/07 05:46:57;;;;;;;;;;;;;;;15.77;62.21;96271.88;5073594;28;20013;-66
2022/10/07 05:49:23;;;;;;;;;;;;;;;15.84;62.00;96266.84;5078678;28;20469;-67
2022/10/07 05:51:48;;;;;;;;;;;;;;;15.84;61.99;96266.84;5074464;28;20021;-67
2022/10/07 05:54:14;;;;;;;;;;;;;;;15.83;61.78;96267.94;5072963;28;20019;-67
2022/10/07 05:56:39;;;;;;;;;;;;;;;15.86;61.73;96263.84;5074106;28;20009;-67
2022/10/07 05:59:04;;;;;;;;;;;;;;;15.92;61.96;96268.00;5071576;28;20219;-68
2022/10/07 06:01:29;;;;;;;;;;;;;;;16.09;61.78;96272.63;5073083;28;20036;-66
2022/10/07 06:03:56;;;;;;;;;;;;;;;16.24;61.45;96266.81;5071986;28;20023;-67
2022/10/07 06:06:21;;;;;;;;;;;;;;;16.31;61.17;96269.03;5077989;28;20122;-65
2022/10/07 06:08:46;;;;;;;;;;;;;;;16.43;60.76;96271.09;5092473;28;20092;-68
2022/10/07 06:13:57;;;;;;;;;;;;;;;16.76;59.96;96274.19;5085864;28;20027;-64
2022/10/07 06:16:23;;;;;;;;;;;;;;;16.88;59.51;96279.72;5072507;28;20013;-65
2022/10/07 06:18:51;;;;;;;;;;;;;;;16.95;59.09;96279.28;5073114;28;20009;-67
2022/10/07 06:21:16;;;;;;;;;;;;;;;17.06;58.95;96280.53;5072105;28;20039;-69
2022/10/07 06:23:41;;;;;;;;;;;;;;;17.22;58.95;96273.53;5073132;28;20574;-68
2022/10/07 06:26:08;;;;;;;;;;;;;;;17.33;58.59;96282.84;5073263;28;20489;-68
2022/10/07 06:28:35;;;;;;;;;;;;;;;17.46;58.04;96274.94;5072653;28;20013;-69
2022/10/07 06:31:05;;;;;;;;;;;;;;;17.58;57.84;96278.53;5071448;28;20064;-68
2022/10/07 06:33:30;;;;;;;;;;;;;;;17.61;57.55;96277.91;5071662;28;20021;-69
2022/10/07 06:35:56;;;;;;;;;;;;;;;17.52;57.70;96274.44;5071354;28;20017;-71
2022/10/07 06:38:21;;;;;;;;;;;;;;;17.62;57.70;96276.78;5071339;28;20071;-71
2022/10/07 06:41:00;;;;;;;;;;;;;;;17.73;57.57;96274.56;5071894;28;20631;-71
2022/10/07 06:43:25;;;;;;;;;;;;;;;17.88;57.31;96276.72;5073121;28;20639;-70
2022/10/07 06:45:51;;;;;;;;;;;;;;;18.02;57.01;96283.81;5072051;28;20098;-68
2022/10/07 06:48:16;;;;;;;;;;;;;;;18.14;56.80;96278.53;5070863;28;20017;-67
2022/10/07 06:50:51;;;;;;;;;;;;;;;18.31;56.15;96281.13;5070453;28;20071;-68
2022/10/07 06:53:16;;;;;;;;;;;;;;;18.49;55.87;96276.44;5071096;28;20024;-67
2022/10/07 06:55:42;;;;;;;;;;;;;;;18.72;55.74;96281.53;5072584;28;20388;-68
2022/10/07 06:58:07;;;;;;;;;;;;;;;18.87;54.99;96272.84;5072389;28;20028;-68
2022/10/07 07:00:32;;;;;;;;;;;;;;;18.99;54.48;96272.94;5069888;28;20017;-68
2022/10/07 07:03:00;;;;;;;;;;;;;;;19.12;54.12;96273.78;5070195;28;20017;-68
2022/10/07 07:05:34;;;;;;;;;;;;;;;19.25;54.10;96274.63;5070301;28;20104;-68
2022/10/07 07:07:59;;;;;;;;;;;;;;;19.33;53.71;96271.03;5071016;28;20013;-68
2022/10/07 07:10:24;;;;;;;;;;;;;;;19.44;53.44;96270.28;5070733;28;20009;-67
2022/10/07 07:12:51;;;;;;;;;;;;;;;19.62;53.14;96283.63;5070722;28;20021;-68
2022/10/07 07:15:17;;;;;;;;;;;;;;;19.68;52.69;96271.50;5070661;28;20021;-69
2022/10/07 07:17:42;;;;;;;;;;;;;;;19.76;52.46;96270.63;5071039;28;20018;-68
2022/10/07 07:20:08;;;;;;;;;;;;;;;19.92;52.18;96265.34;5070261;28;20484;-67
2022/10/07 07:22:33;;;;;;;;;;;;;;;20.01;51.77;96268.72;5069169;28;20063;-68
2022/10/07 07:24:58;;;;;;;;;;;;;;;19.97;51.59;96275.94;5072131;28;20009;-68
2022/10/07 07:27:23;;;;;;;;;;;;;;;20.11;51.68;96275.59;5071875;28;20385;-67
2022/10/07 07:29:49;;;;;;;;;;;;;;;20.30;51.69;96272.34;5070798;28;20392;-68
2022/10/07 07:32:14;;;;;;;;;;;;;;;20.42;51.29;96264.22;5069514;28;20020;-68
2022/10/07 07:34:39;;;;;;;;;;;;;;;20.57;51.05;96268.16;5071685;28;20010;-67
2022/10/07 07:37:05;;;;;;;;;;;;;;;20.00;50.96;96270.63;5072080;28;20082;-68
2022/10/07 07:39:30;;;;;;;;;;;;;;;20.39;51.30;96270.31;5069987;28;20376;-67
2022/10/07 07:41:55;;;;;;;;;;;;;;;20.67;50.79;96262.28;5071888;28;20013;-67
2022/10/07 07:44:22;;;;;;;;;;;;;;;20.80;50.46;96263.84;5070722;28;20021;-68
2022/10/07 07:46:50;;;;;;;;;;;;;;;20.99;50.14;96257.81;5069642;28;20124;-67
2022/10/07 07:49:15;;;;;;;;;;;;;;;21.12;49.83;96258.56;5071311;28;20006;-68
2022/10/07 07:51:43;;;;;;;;;;;;;;;21.25;49.34;96258.16;5071524;28;20377;-67
2022/10/07 07:54:09;;;;;;;;;;;;;;;21.31;49.31;96252.53;5071493;28;20092;-67
2022/10/07 07:56:34;;;;;;;;;;;;;;;21.44;49.45;96246.69;5070875;28;20091;-68
2022/10/07 07:59:03;;;;;;;;;;;;;;;21.58;49.01;96250.94;5070974;28;20017;-67
2022/10/07 08:01:30;;;;;;;;;;;;;;;21.56;48.83;96251.28;5070349;28;20074;-68
2022/10/07 08:03:56;;;;;;;;;;;;;;;21.59;48.82;96250.56;5069721;28;20461;-68
2022/10/07 08:06:23;;;;;;;;;;;;;;;21.73;48.61;96242.03;5071279;28;20084;-68
2022/10/07 08:08:50;;;;;;;;;;;;;;;21.75;48.47;96251.41;5068910;28;20021;-68
2022/10/07 08:11:16;;;;;;;;;;;;;;;21.83;48.02;96255.06;5071172;28;20009;-68
2022/10/07 08:13:42;;;;;;;;;;;;;;;21.82;48.17;96248.06;5070988;28;20021;-67
2022/10/07 08:16:08;;;;;;;;;;;;;;;21.86;48.21;96243.53;5070422;28;20425;-67
2022/10/07 08:18:33;;;;;;;;;;;;;;;21.82;48.21;96252.69;5070574;28;20564;-68
2022/10/07 08:21:00;;;;;;;;;;;;;;;21.86;48.27;96245.47;5069878;28;20017;-67
2022/10/07 08:23:26;;;;;;;;;;;;;;;21.97;48.27;96249.22;5068721;28;20044;-68
2022/10/07 08:25:55;;;;;;;;;;;;;;;22.03;48.33;96247.81;5070706;28;20535;-68
2022/10/07 08:28:20;;;;;;;;;;;;;;;22.11;47.55;96244.16;5069107;28;20027;-67
2022/10/07 08:30:45;;;;;;;;;;;;;;;22.02;47.78;96251.66;5068359;28;20108;-67
2022/10/07 08:33:11;;;;;;;;;;;;;;;22.04;47.80;96243.94;5068727;28;20020;-67
2022/10/07 08:35:36;;;;;;;;;;;;;;;22.12;47.71;96243.03;5070991;28;20039;-67
2022/10/07 08:38:02;;;;;;;;;;;;;;;22.15;47.98;96238.81;5070604;28;20374;-67
2022/10/07 08:40:27;;;;;;;;;;;;;;;22.16;47.92;96235.78;5070199;28;20035;-67
2022/10/07 08:42:53;;;;;;;;;;;;;;;22.24;47.83;96237.50;5068062;28;20072;-67
2022/10/07 08:45:28;;;;;;;;;;;;;;;21.75;47.96;96231.63;5068235;28;20025;-67
2022/10/07 08:47:56;;;;;;;;;;;;;;;21.03;49.66;96223.53;5069132;28;20012;-67
2022/10/07 08:50:29;;;;;;;;;;;;;;;21.37;49.43;96224.88;5068632;28;20016;-67
2022/10/07 08:53:01;;;;;;;;;;;;;;;21.42;49.62;96229.25;5070233;28;20577;-67
2022/10/07 08:55:33;;;;;;;;;;;;;;;20.48;51.26;96230.47;5069503;28;20014;-67
2022/10/07 08:58:03;;;;;;;;;;;;;;;20.60;51.73;96226.94;5068596;28;20021;-67
2022/10/07 09:00:35;;;;;;;;;;;;;;;20.54;51.92;96231.03;5068827;28;20030;-67
2022/10/07 09:03:06;;;;;;;;;;;;;;;20.89;51.24;96221.25;5070219;28;20009;-67
2022/10/07 09:05:35;;;;;;;;;;;;;;;21.06;51.18;96219.38;5070198;28;20140;-67
2022/10/07 09:08:03;;;;;;;;;;;;;;;21.19;50.30;96215.44;5070385;28;20023;-67
2022/10/07 09:10:31;;;;;;;;;;;;;;;21.36;50.13;96214.41;5069826;28;20187;-67
2022/10/07 09:13:03;;;;;;;;;;;;;;;20.98;50.63;96213.75;5070273;28;20017;-67
2022/10/07 09:15:38;;;;;;;;;;;;;;;21.39;50.62;96213.69;5067811;28;20017;-67
2022/10/07 09:18:09;;;;;;;;;;;;;;;21.71;50.39;96209.88;5068155;28;20042;-67
2022/10/07 09:20:38;;;;;;;;;;;;;;;22.08;49.35;96203.41;5069661;28;20009;-67
2022/10/07 09:23:04;;;;;;;;;;;;;;;21.55;49.34;96211.81;5068675;28;20017;-67
2022/10/07 09:25:30;;;;;;;;;;;;;;;22.04;49.12;96206.03;5070106;28;20163;-67
2022/10/07 09:27:55;;;;;;;;;;;;;;;22.10;48.54;96203.81;5070081;28;20052;-66
2022/10/07 09:30:21;;;;;;;;;;;;;;;22.41;48.08;96200.28;5067247;28;20013;-66
2022/10/07 09:32:48;;;;;;;;;;;;;;;22.62;47.90;96191.81;5067391;28;20070;-67
2022/10/07 09:35:15;;;;;;;;;;;;;;;22.81;47.64;96189.91;5068670;28;20063;-67
2022/10/07 09:38:00;;;;;;;;;;;;;;;22.81;47.01;96189.13;5070038;28;20016;-66
2022/10/07 09:40:25;;;;;;;;;;;;;;;23.00;46.84;96186.44;5069481;28;20054;-67
2022/10/07 09:42:52;;;;;;;;;;;;;;;23.14;46.30;96185.94;5067292;28;20433;-67
2022/10/07 09:45:23;;;;;;;;;;;;;;;23.15;45.09;96192.94;5069784;28;20010;-67
2022/10/07 09:47:51;;;;;;;;;;;;;;;23.45;45.85;96195.03;5069047;28;20017;-67
2022/10/07 09:50:28;;;;;;;;;;;;;;;23.68;44.48;96203.19;5067924;28;20013;-67
2022/10/07 09:52:54;;;;;;;;;;;;;;;23.83;44.83;96189.47;5067265;28;20078;-66
2022/10/07 09:55:27;;;;;;;;;;;;;;;24.02;44.44;96191.34;5068738;28;20017;-67
2022/10/07 09:58:00;;;;;;;;;;;;;;;24.14;44.41;96187.63;5069838;28;20028;-68
2022/10/07 10:00:26;;;;;;;;;;;;;;;24.32;43.29;96182.44;5067976;28;20013;-68
2022/10/07 10:02:53;;;;;;;;;;;;;;;24.43;43.14;96180.69;5066404;28;20029;-67
2022/10/07 10:05:24;;;;;;;;;;;;;;;24.44;43.29;96178.75;5068720;28;20112;-68
2022/10/07 10:07:54;;;;;;;;;;;;;;;24.37;43.00;96182.94;5069745;28;20009;-67
2022/10/07 10:10:21;;;;;;;;;;;;;;;24.66;42.90;96177.09;5069281;28;20485;-67
2022/10/07 10:12:47;;;;;;;;;;;;;;;24.72;42.39;96176.41;5067395;28;20032;-68
2022/10/07 10:15:37;;;;;;;;;;;;;;;24.79;42.37;96170.25;5069390;28;20044;-67
2022/10/07 10:18:22;;;;;;;;;;;;;;;24.83;41.86;96169.16;5063200;28;20028;-67
2022/10/07 10:20:47;;;;;;;;;;;;;;;24.92;42.23;96166.13;5068354;28;20017;-68
2022/10/07 10:23:31;;;;;;;;;;;;;;;24.75;42.60;96170.22;5067241;28;20103;-68
2022/10/07 10:29:01;;;;;;;;;;;;;;;24.92;42.13;96173.50;5070391;28;20086;-67
2022/10/07 10:31:31;;;;;;;;;;;;;;;23.22;44.63;96168.63;5070211;28;20495;-67
2022/10/07 10:34:02;;;;;;;;;;;;;;;23.91;43.83;96157.00;5073236;28;20474;-67
2022/10/07 10:36:31;;;;;;;;;;;;;;;24.32;43.76;96163.41;5071591;28;20510;-66
2022/10/07 10:39:05;;;;;;;;;;;;;;;23.05;44.58;96103.97;5071231;28;20100;-68
2022/10/07 10:41:34;;;;;;;;;;;;;;;22.63;46.49;96156.22;5071903;28;20049;-66
2022/10/07 10:44:05;;;;;;;;;;;;;;;23.55;45.92;96156.41;5072814;28;20107;-68
2022/10/07 10:46:38;;;;;;;;;;;;;;;24.20;44.02;96147.31;5070437;28;20123;-66
2022/10/07 10:49:09;;;;;;;;;;;;;;;24.61;43.29;96142.81;5071054;28;20013;-65
2022/10/07 10:51:54;;;;;;;;;;;;;;;25.00;43.22;96145.22;5070663;28;20052;-65
2022/10/07 10:54:25;;;;;;;;;;;;;;;25.46;41.63;96134.03;5071567;28;20108;-66
2022/10/07 10:56:53;;;;;;;;;;;;;;;25.67;40.82;96131.47;5071443;28;20092;-66
2022/10/07 10:59:18;;;;;;;;;;;;;;;25.23;40.56;96134.97;5072351;28;20026;-67
2022/10/07 11:01:46;;;;;;;;;;;;;;;24.75;41.69;96128.63;5070663;28;20039;-67
2022/10/07 11:04:12;;;;;;;;;;;;;;;25.15;41.84;96133.34;5070985;28;20059;-66
2022/10/07 11:06:40;;;;;;;;;;;;;;;25.59;41.11;96125.22;5072407;28;20010;-67
2022/10/07 11:09:09;;;;;;;;;;;;;;;25.69;40.33;96129.16;5072089;28;20014;-67
2022/10/07 11:11:35;;;;;;;;;;;;;;;25.82;40.37;96121.50;5072356;28;20016;-67
2022/10/07 11:14:13;;;;;;;;;;;;;;;25.88;39.88;96114.53;5070031;28;20752;-67
2022/10/07 11:16:40;;;;;;;;;;;;;;;25.91;40.09;96122.75;5069904;28;20044;-67
2022/10/07 11:19:08;;;;;;;;;;;;;;;25.35;40.36;96107.50;5070735;28;20013;-67
2022/10/07 11:21:38;;;;;;;;;;;;;;;25.17;40.88;96106.53;5070903;28;20020;-67
2022/10/07 11:24:14;;;;;;;;;;;;;;;23.49;43.50;96107.03;5071344;28;20009;-66
2022/10/07 11:27:01;;;;;;;;;;;;;;;22.99;45.49;96110.84;5072149;28;20008;-68
2022/10/07 11:29:39;;;;;;;;;;;;;;;23.15;45.42;96108.78;5071931;28;20014;-67
2022/10/07 11:32:14;;;;;;;;;;;;;;;23.23;45.31;96101.53;5071147;28;20389;-66
2022/10/07 11:34:45;;;;;;;;;;;;;;;23.15;45.92;96095.22;5071829;28;20078;-67
2022/10/07 11:37:10;;;;;;;;;;;;;;;22.19;48.22;96096.06;5070009;28;20470;-70
2022/10/07 11:39:36;;;;;;;;;;;;;;;21.29;50.28;96102.09;5070035;28;20054;-66
2022/10/07 11:42:11;;;;;;;;;;;;;;;20.72;52.28;96095.22;5070542;28;20111;-66
2022/10/07 11:44:52;;;;;;;;;;;;;;;21.30;50.80;96089.38;5071728;28;20407;-66
2022/10/07 11:47:21;;;;;;;;;;;;;;;20.91;52.05;96075.63;5070987;28;20024;-66
2022/10/07 11:49:54;;;;;;;;;;;;;;;20.93;52.64;96067.94;5070119;28;20120;-66
2022/10/07 11:52:27;;;;;;;;;;;;;;;20.37;53.70;96081.50;5070217;28;20039;-65
2022/10/07 11:55:05;;;;;;;;;;;;;;;20.79;53.00;96058.69;5069962;28;20013;-67
2022/10/07 11:57:33;;;;;;;;;;;;;;;20.52;53.02;96063.78;5071316;28;20116;-67
2022/10/07 12:00:00;;;;;;;;;;;;;;;21.03;52.64;96061.22;5069064;28;20014;-67
2022/10/07 12:02:28;;;;;;;;;;;;;;;19.89;55.32;96066.22;5070121;28;20130;-67
2022/10/07 12:04:56;;;;;;;;;;;;;;;20.45;53.83;96052.75;5071155;28;20056;-67
2022/10/07 12:07:36;;;;;;;;;;;;;;;19.04;57.47;96056.19;5071252;28;20013;-67
2022/10/07 12:10:04;;;;;;;;;;;;;;;20.05;54.90;96050.09;5070806;28;20009;-67
2022/10/07 12:12:42;;;;;;;;;;;;;;;20.25;54.61;96049.91;5069769;28;20024;-67
2022/10/07 12:15:23;;;;;;;;;;;;;;;19.51;56.72;96043.09;5069853;28;20013;-68
2022/10/07 12:17:52;;;;;;;;;;;;;;;19.79;56.08;96042.38;5070336;28;20017;-68
2022/10/07 12:20:36;;;;;;;;;;;;;;;20.91;53.75;96032.34;5068835;28;20013;-68
2022/10/07 12:25:45;;;;;;;;;;;;;;;21.09;52.57;96022.00;5069252;28;20074;-68
2022/10/07 12:28:15;;;;;;;;;;;;;;;21.39;51.71;96018.81;5069116;28;20390;-68
2022/10/07 12:30:49;;;;;;;;;;;;;;;21.31;50.98;96014.41;5070669;28;20827;-68
2022/10/07 12:33:23;;;;;;;;;;;;;;;21.32;51.00;96008.63;5068517;28;20021;-66
2022/10/07 12:35:49;;;;;;;;;;;;;;;20.90;51.93;96006.44;5069029;28;20020;-68
2022/10/07 12:38:16;;;;;;;;;;;;;;;20.38;53.33;96007.41;5069093;28;20522;-66
2022/10/07 12:40:45;;;;;;;;;;;;;;;20.80;52.51;96001.56;5070072;28;20552;-67
2022/10/07 12:43:30;;;;;;;;;;;;;;;20.80;52.73;96001.56;5069765;28;20013;-70
2022/10/07 12:45:56;;;;;;;;;;;;;;;21.34;51.35;95992.03;5069586;28;20013;-69
2022/10/07 12:48:22;;;;;;;;;;;;;;;21.37;51.00;95999.47;5068378;28;20048;-69
2022/10/07 12:50:49;;;;;;;;;;;;;;;21.78;50.15;95993.41;5068530;28;20020;-69
2022/10/07 12:53:15;;;;;;;;;;;;;;;21.89;49.86;95988.22;5068456;28;20071;-69
2022/10/07 12:55:45;;;;;;;;;;;;;;;22.04;49.39;95992.78;5069251;28;20048;-69
2022/10/07 13:01:10;;;;;;;;;;;;;;;22.06;49.13;95990.50;5063781;28;20679;-69
2022/10/07 13:03:42;;;;;;;;;;;;;;;22.07;48.83;95991.28;5068131;28;20013;-69
2022/10/07 13:06:25;;;;;;;;;;;;;;;22.10;49.23;95974.31;5070436;28;20465;-69